createdAt,value
2018-11-04T00:01:54.377Z,20.47
2018-11-04T00:04:23.514Z,20.63
2018-11-04T00:06:52.676Z,20.90
2018-11-04T00:09:21.856Z,21.30
2018-11-04T00:11:50.994Z,21.43
2018-11-04T00:14:20.142Z,20.80
2018-11-04T00:16:49.505Z,20.93
2018-11-04T00:19:18.653Z,21.47
2018-11-04T00:21:48.510Z,20.47
2018-11-04T00:24:17.658Z,22.17
2018-11-04T00:26:46.898Z,21.37
2018-11-04T00:29:15.964Z,21.43
2018-11-04T00:31:45.102Z,22.07
2018-11-04T00:34:14.605Z,20.30
2018-11-04T00:36:43.803Z,21.60
2018-11-04T00:39:13.108Z,20.90
2018-11-04T00:41:42.365Z,21.07
2018-11-04T00:44:11.726Z,21.00
2018-11-04T00:46:40.927Z,22.10
2018-11-04T00:49:10.651Z,20.20
2018-11-04T00:51:39.750Z,19.97
2018-11-04T00:54:08.919Z,23.73
2018-11-04T00:56:38.106Z,19.80
2018-11-04T00:59:07.892Z,20.30
2018-11-04T01:01:37.175Z,19.93
2018-11-04T01:04:06.253Z,20.20
2018-11-04T01:06:35.464Z,20.53
2018-11-04T01:09:05.613Z,21.13
2018-11-04T01:11:34.830Z,21.00
2018-11-04T01:14:04.076Z,21.60
2018-11-04T01:16:33.886Z,21.50
2018-11-04T01:19:03.544Z,20.67
2018-11-04T01:21:32.701Z,21.70
2018-11-04T01:24:02.269Z,21.53
2018-11-04T01:26:31.453Z,22.10
2018-11-04T01:29:00.712Z,20.47
2018-11-04T01:31:29.963Z,21.53
2018-11-04T01:33:59.750Z,20.90
2018-11-04T01:36:28.987Z,19.87
2018-11-04T01:38:58.887Z,21.37
2018-11-04T01:41:28.106Z,20.53
2018-11-04T01:43:57.243Z,21.30
2018-11-04T01:46:26.429Z,20.90
2018-11-04T01:48:56.242Z,21.40
2018-11-04T01:51:25.993Z,20.47
2018-11-04T01:53:55.087Z,20.50
2018-11-04T01:56:24.781Z,20.40
2018-11-04T01:58:53.941Z,22.30
2018-11-04T02:01:23.573Z,19.63
2018-11-04T02:03:52.657Z,20.13
2018-11-04T02:06:21.849Z,19.90
2018-11-04T02:08:51.246Z,18.83
2018-11-04T02:11:20.411Z,18.53
2018-11-04T02:13:49.486Z,19.10
2018-11-04T02:16:18.680Z,18.70
2018-11-04T02:18:47.822Z,17.97
2018-11-04T02:21:17.302Z,19.80
2018-11-04T02:23:46.587Z,18.50
2018-11-04T02:26:16.313Z,17.77
2018-11-04T02:28:45.482Z,19.07
2018-11-04T02:31:14.738Z,17.27
2018-11-04T02:33:44.019Z,18.67
2018-11-04T02:36:13.226Z,19.03
2018-11-04T02:38:43.105Z,20.00
2018-11-04T02:41:12.386Z,18.77
2018-11-04T02:43:41.506Z,19.47
2018-11-04T02:46:10.651Z,21.13
2018-11-04T02:48:40.102Z,19.67
2018-11-04T02:51:09.204Z,20.00
2018-11-04T02:53:38.337Z,19.60
2018-11-04T02:56:07.508Z,19.97
2018-11-04T02:58:36.722Z,19.90
2018-11-04T03:01:06.114Z,19.60
2018-11-04T03:03:35.521Z,22.63
2018-11-04T03:06:05.156Z,19.40
2018-11-04T03:08:34.498Z,19.67
2018-11-04T03:11:04.338Z,20.83
2018-11-04T03:13:33.513Z,21.03
2018-11-04T03:16:03.561Z,21.40
2018-11-04T03:18:32.654Z,21.43
2018-11-04T03:21:01.886Z,19.60
2018-11-04T03:23:31.128Z,19.53
2018-11-04T03:26:01.677Z,19.30
2018-11-04T03:28:30.845Z,18.70
2018-11-04T03:31:00.200Z,21.07
2018-11-04T03:33:29.384Z,20.90
2018-11-04T03:35:58.554Z,20.07
2018-11-04T03:38:27.912Z,17.93
2018-11-04T03:40:57.109Z,19.33
2018-11-04T03:43:26.761Z,19.60
2018-11-04T03:45:55.913Z,19.70
2018-11-04T03:48:25.049Z,21.07
2018-11-04T03:50:54.287Z,21.33
2018-11-04T03:53:24.382Z,19.40
2018-11-04T03:55:53.624Z,18.40
2018-11-04T03:58:22.937Z,18.27
2018-11-04T04:00:52.100Z,18.87
2018-11-04T04:03:21.369Z,19.80
2018-11-04T04:05:51.585Z,18.60
2018-11-04T04:08:20.789Z,18.80
2018-11-04T04:10:49.998Z,17.70
2018-11-04T04:13:19.232Z,19.90
2018-11-04T04:15:48.423Z,19.07
2018-11-04T04:18:17.692Z,18.90
2018-11-04T04:20:46.909Z,20.07
2018-11-04T04:23:16.061Z,19.03
2018-11-04T04:25:45.285Z,17.77
2018-11-04T04:28:14.382Z,18.93
2018-11-04T04:30:43.502Z,19.53
2018-11-04T04:33:12.645Z,20.57
2018-11-04T04:35:41.850Z,21.60
2018-11-04T04:38:10.982Z,18.47
2018-11-04T04:40:40.133Z,18.67
2018-11-04T04:43:09.242Z,17.63
2018-11-04T04:45:39.129Z,18.03
2018-11-04T04:48:08.762Z,18.23
2018-11-04T04:50:37.934Z,17.90
2018-11-04T04:53:07.442Z,18.97
2018-11-04T04:55:36.931Z,19.30
2018-11-04T04:58:06.141Z,19.33
2018-11-04T05:00:35.338Z,19.30
2018-11-04T05:03:04.493Z,19.13
2018-11-04T05:05:33.686Z,18.37
2018-11-04T05:08:02.861Z,19.90
2018-11-04T05:10:32.038Z,18.53
2018-11-04T05:13:01.283Z,18.93
2018-11-04T05:15:30.436Z,19.10
2018-11-04T05:17:59.657Z,18.47
2018-11-04T05:20:28.849Z,20.03
2018-11-04T05:22:58.172Z,17.87
2018-11-04T05:25:28.009Z,18.53
2018-11-04T05:27:57.312Z,18.63
2018-11-04T05:30:26.586Z,19.50
2018-11-04T05:32:56.420Z,18.60
2018-11-04T05:35:25.611Z,18.70
2018-11-04T05:37:54.753Z,18.17
2018-11-04T05:40:23.990Z,19.50
2018-11-04T05:42:53.182Z,16.67
2018-11-04T05:45:22.273Z,17.00
2018-11-04T05:47:51.413Z,17.37
2018-11-04T05:50:20.509Z,18.23
2018-11-04T05:52:49.722Z,17.13
2018-11-04T05:55:18.941Z,17.87
2018-11-04T05:57:48.817Z,17.30
2018-11-04T06:00:17.939Z,15.90
2018-11-04T06:02:47.774Z,17.50
2018-11-04T06:05:17.675Z,18.37
2018-11-04T06:07:47.026Z,17.30
2018-11-04T06:10:16.174Z,17.03
2018-11-04T06:12:45.345Z,18.70
2018-11-04T06:15:14.491Z,16.70
2018-11-04T06:17:43.757Z,18.00
2018-11-04T06:20:13.362Z,19.13
2018-11-04T06:22:43.869Z,18.30
2018-11-04T06:25:13.099Z,19.37
2018-11-04T06:27:42.223Z,19.40
2018-11-04T06:30:12.830Z,19.97
2018-11-04T06:32:42.705Z,19.60
2018-11-04T06:35:11.794Z,21.50
2018-11-04T06:37:40.960Z,19.90
2018-11-04T06:40:10.744Z,20.90
2018-11-04T06:42:40.404Z,20.70
2018-11-04T06:45:10.341Z,18.97
2018-11-04T06:47:39.872Z,21.00
2018-11-04T06:50:11.036Z,20.93
2018-11-04T06:52:40.218Z,20.03
2018-11-04T06:55:10.070Z,21.10
2018-11-04T06:57:39.684Z,20.03
2018-11-04T07:00:11.042Z,21.23
2018-11-04T07:02:40.281Z,20.97
2018-11-04T07:05:10.010Z,20.73
2018-11-04T07:07:39.177Z,21.43
2018-11-04T07:10:09.057Z,19.30
2018-11-04T07:12:38.380Z,20.90
2018-11-04T07:15:07.526Z,22.53
2018-11-04T07:17:36.660Z,21.13
2018-11-04T07:20:07.386Z,21.23
2018-11-04T07:22:36.450Z,20.10
2018-11-04T07:25:06.357Z,20.90
2018-11-04T07:27:35.620Z,19.83
2018-11-04T07:30:06.279Z,22.57
2018-11-04T07:32:35.519Z,22.23
2018-11-04T07:35:05.360Z,22.67
2018-11-04T07:37:34.550Z,21.20
2018-11-04T07:40:03.833Z,21.13
2018-11-04T07:42:32.917Z,20.50
2018-11-04T07:45:02.116Z,21.67
2018-11-04T07:47:32.010Z,22.67
2018-11-04T07:50:01.420Z,21.03
2018-11-04T07:52:30.746Z,21.20
2018-11-04T07:55:00.001Z,20.00
2018-11-04T07:57:29.146Z,22.70
2018-11-04T07:59:59.096Z,22.83
2018-11-04T08:02:28.197Z,22.53
2018-11-04T08:04:57.370Z,20.23
2018-11-04T08:07:26.530Z,21.70
2018-11-04T08:09:55.791Z,21.60
2018-11-04T08:12:24.914Z,22.10
2018-11-04T08:14:54.824Z,22.63
2018-11-04T08:17:23.951Z,20.73
2018-11-04T08:19:53.221Z,22.77
2018-11-04T08:22:22.578Z,21.40
2018-11-04T08:24:51.705Z,20.13
2018-11-04T08:27:20.856Z,21.80
2018-11-04T08:29:51.424Z,21.67
2018-11-04T08:32:20.709Z,21.33
2018-11-04T08:34:49.878Z,21.93
2018-11-04T08:37:19.048Z,19.80
2018-11-04T08:39:48.426Z,22.80
2018-11-04T08:42:17.552Z,21.57
2018-11-04T08:44:46.693Z,20.50
2018-11-04T08:47:16.241Z,24.03
2018-11-04T08:49:45.385Z,21.93
2018-11-04T08:52:15.385Z,22.33
2018-11-04T08:54:44.894Z,21.27
2018-11-04T08:57:14.327Z,21.53
2018-11-04T08:59:43.800Z,21.30
2018-11-04T09:02:13.872Z,22.43
2018-11-04T09:04:43.159Z,23.77
2018-11-04T09:07:12.233Z,21.80
2018-11-04T09:09:41.561Z,20.93
2018-11-04T09:12:10.727Z,20.60
2018-11-04T09:14:40.081Z,21.40
2018-11-04T09:17:09.421Z,21.27
2018-11-04T09:19:40.169Z,20.13
2018-11-04T09:22:09.333Z,21.03
2018-11-04T09:24:39.341Z,18.83
2018-11-04T09:27:08.505Z,20.30
2018-11-04T09:29:38.491Z,20.30
2018-11-04T09:32:08.126Z,19.57
2018-11-04T09:34:37.305Z,20.57
2018-11-04T09:37:07.010Z,20.63
2018-11-04T09:39:36.278Z,21.90
2018-11-04T09:42:06.345Z,18.47
2018-11-04T09:44:35.790Z,19.80
2018-11-04T09:47:05.698Z,18.80
2018-11-04T09:49:35.473Z,19.00
2018-11-04T09:52:05.389Z,20.30
2018-11-04T09:54:34.526Z,20.37
2018-11-04T09:57:03.666Z,18.60
2018-11-04T09:59:32.843Z,20.03
2018-11-04T10:02:02.365Z,19.70
2018-11-04T10:04:31.606Z,20.97
2018-11-04T10:07:01.523Z,19.30
2018-11-04T10:09:30.756Z,19.90
2018-11-04T10:12:00.949Z,18.13
2018-11-04T10:14:30.037Z,18.53
2018-11-04T10:16:59.211Z,18.90
2018-11-04T10:19:28.530Z,18.50
2018-11-04T10:21:58.122Z,17.50
2018-11-04T10:24:27.859Z,15.63
2018-11-04T10:26:57.188Z,16.80
2018-11-04T10:29:26.349Z,17.00
2018-11-04T10:31:55.554Z,17.87
2018-11-04T10:34:24.729Z,16.70
2018-11-04T10:36:53.928Z,18.60
2018-11-04T10:39:23.172Z,17.40
2018-11-04T10:41:52.333Z,18.50
2018-11-04T10:44:22.269Z,19.23
2018-11-04T10:46:51.467Z,17.23
2018-11-04T10:49:20.729Z,18.20
2018-11-04T10:51:50.390Z,18.03
2018-11-04T10:54:19.653Z,17.20
2018-11-04T10:56:49.422Z,16.50
2018-11-04T10:59:18.617Z,16.80
2018-11-04T11:01:47.789Z,18.00
2018-11-04T11:04:17.638Z,17.80
2018-11-04T11:06:46.826Z,16.27
2018-11-04T11:09:16.095Z,17.00
2018-11-04T11:11:45.302Z,16.27
2018-11-04T11:14:14.510Z,17.07
2018-11-04T11:16:43.733Z,16.80
2018-11-04T11:19:13.307Z,15.57
2018-11-04T11:21:42.568Z,16.00
2018-11-04T11:24:12.132Z,15.63
2018-11-04T11:26:41.553Z,18.40
2018-11-04T11:29:10.707Z,16.93
2018-11-04T11:31:39.955Z,17.17
2018-11-04T11:34:09.192Z,16.00
2018-11-04T11:36:38.368Z,15.43
2018-11-04T11:39:10.667Z,14.83
2018-11-04T11:41:41.172Z,16.27
2018-11-04T11:44:10.894Z,15.77
2018-11-04T11:46:40.375Z,16.17
2018-11-04T11:49:09.794Z,16.40
2018-11-04T11:51:39.009Z,16.90
2018-11-04T11:54:08.282Z,14.17
2018-11-04T11:56:37.451Z,15.73
2018-11-04T11:59:06.710Z,16.13
2018-11-04T12:01:35.857Z,16.77
2018-11-04T12:04:05.172Z,16.43
2018-11-04T12:06:34.472Z,14.67
2018-11-04T12:09:05.323Z,15.00
2018-11-04T12:11:34.736Z,14.10
2018-11-04T12:14:03.963Z,15.13
2018-11-04T12:16:33.197Z,16.30
2018-11-04T12:19:02.353Z,16.23
2018-11-04T12:21:31.822Z,15.80
2018-11-04T12:24:00.931Z,14.30
2018-11-04T12:26:30.208Z,14.77
2018-11-04T12:28:59.295Z,15.20
2018-11-04T12:31:28.453Z,13.70
2018-11-04T12:33:57.617Z,13.50
2018-11-04T12:36:26.916Z,13.17
2018-11-04T12:38:56.108Z,13.80
2018-11-04T12:41:25.313Z,13.93
2018-11-04T12:43:54.526Z,13.43
2018-11-04T12:46:23.752Z,12.30
2018-11-04T12:48:54.061Z,14.03
2018-11-04T12:51:24.117Z,12.30
2018-11-04T12:53:54.017Z,12.70
2018-11-04T12:56:24.200Z,13.40
2018-11-04T12:58:53.432Z,13.10
2018-11-04T13:01:22.693Z,13.00
2018-11-04T13:03:51.913Z,11.23
2018-11-04T13:06:21.074Z,13.63
2018-11-04T13:08:50.811Z,12.87
2018-11-04T13:11:20.199Z,11.43
2018-11-04T13:13:50.004Z,11.20
2018-11-04T13:16:19.290Z,11.00
2018-11-04T13:18:48.522Z,11.93
2018-11-04T13:21:17.798Z,11.70
2018-11-04T13:23:46.864Z,12.80
2018-11-04T13:26:16.124Z,12.60
2018-11-04T13:28:45.388Z,12.27
2018-11-04T13:31:14.610Z,12.13
2018-11-04T13:33:43.882Z,13.00
2018-11-04T13:36:12.981Z,12.40
2018-11-04T13:38:42.860Z,12.07
2018-11-04T13:41:12.777Z,12.93
2018-11-04T13:43:41.978Z,11.80
2018-11-04T13:46:11.331Z,11.40
2018-11-04T13:48:40.549Z,11.63
2018-11-04T13:51:09.694Z,11.70
2018-11-04T13:53:39.498Z,10.93
2018-11-04T13:56:08.678Z,12.30
2018-11-04T13:58:37.981Z,11.77
2018-11-04T14:01:07.835Z,11.73
2018-11-04T14:03:37.177Z,11.50
2018-11-04T14:06:06.382Z,11.07
2018-11-04T14:08:35.500Z,12.73
2018-11-04T14:11:05.062Z,11.90
2018-11-04T14:13:34.366Z,11.43
2018-11-04T14:16:03.999Z,12.90
2018-11-04T14:18:33.233Z,12.23
2018-11-04T14:21:02.658Z,14.30
2018-11-04T14:23:31.966Z,13.40
2018-11-04T14:26:01.162Z,12.47
2018-11-04T14:28:30.724Z,13.47
2018-11-04T14:30:59.883Z,15.13
2018-11-04T14:33:29.025Z,12.63
2018-11-04T14:35:58.834Z,13.10
2018-11-04T14:38:28.078Z,14.17
2018-11-04T14:40:57.308Z,13.70
2018-11-04T14:43:26.539Z,14.40
2018-11-04T14:45:55.811Z,15.17
2018-11-04T14:48:25.018Z,13.50
2018-11-04T14:50:54.264Z,13.83
2018-11-04T14:53:23.684Z,14.80
2018-11-04T14:55:52.928Z,14.43
2018-11-04T14:58:22.077Z,14.90
2018-11-04T15:00:51.168Z,13.87
2018-11-04T15:03:20.394Z,15.87
2018-11-04T15:05:49.672Z,15.53
2018-11-04T15:08:20.353Z,13.67
2018-11-04T15:10:50.514Z,15.37
2018-11-04T15:13:20.261Z,13.27
2018-11-04T15:15:50.045Z,13.80
2018-11-04T15:18:20.216Z,13.67
2018-11-04T15:20:50.093Z,14.40
2018-11-04T15:23:19.643Z,14.97
2018-11-04T15:25:49.420Z,15.87
2018-11-04T15:28:18.638Z,15.07
2018-11-04T15:30:47.944Z,16.63
2018-11-04T15:33:17.179Z,14.47
2018-11-04T15:35:46.400Z,14.00
2018-11-04T15:38:16.266Z,15.20
2018-11-04T15:40:45.572Z,14.00
2018-11-04T15:43:15.537Z,14.07
2018-11-04T15:45:45.235Z,14.90
2018-11-04T15:48:14.325Z,14.67
2018-11-04T15:50:43.531Z,13.53
2018-11-04T15:53:12.701Z,12.27
2018-11-04T15:55:41.880Z,12.70
2018-11-04T15:58:11.024Z,13.27
2018-11-04T16:00:40.169Z,13.40
2018-11-04T16:03:10.124Z,12.93
2018-11-04T16:05:39.307Z,12.00
2018-11-04T16:08:08.505Z,13.13
2018-11-04T16:10:38.089Z,13.30
2018-11-04T16:13:07.265Z,13.43
2018-11-04T16:15:36.440Z,14.17
2018-11-04T16:18:05.767Z,14.17
2018-11-04T16:20:34.860Z,15.30
2018-11-04T16:23:04.476Z,14.47
2018-11-04T16:25:33.792Z,13.77
2018-11-04T16:28:02.919Z,13.90
2018-11-04T16:30:32.217Z,12.77
2018-11-04T16:33:01.314Z,15.03
2018-11-04T16:35:30.513Z,15.60
2018-11-04T16:37:59.751Z,15.10
2018-11-04T16:40:28.924Z,13.53
2018-11-04T16:42:58.700Z,14.70
2018-11-04T16:45:27.810Z,14.47
2018-11-04T16:47:57.038Z,15.17
2018-11-04T16:50:26.934Z,14.80
2018-11-04T16:52:56.289Z,14.03
2018-11-04T16:55:25.455Z,15.20
2018-11-04T16:57:54.519Z,13.97
2018-11-04T17:00:24.268Z,15.20
2018-11-04T17:02:53.553Z,14.30
2018-11-04T17:05:22.881Z,13.53
2018-11-04T17:07:51.901Z,15.00
2018-11-04T17:10:21.222Z,14.57
2018-11-04T17:12:50.897Z,14.27
2018-11-04T17:15:20.068Z,14.10
2018-11-04T17:17:49.212Z,14.37
2018-11-04T17:20:19.441Z,13.70
2018-11-04T17:22:48.616Z,13.37
2018-11-04T17:25:17.798Z,13.03
2018-11-04T17:27:46.991Z,14.50
2018-11-04T17:30:18.184Z,13.70
2018-11-04T17:32:48.193Z,14.43
2018-11-04T17:35:18.046Z,14.00
2018-11-04T17:37:47.422Z,13.10
2018-11-04T17:40:17.409Z,14.70
2018-11-04T17:42:46.590Z,12.80
2018-11-04T17:45:16.873Z,13.80
2018-11-04T17:47:46.662Z,13.70
2018-11-04T17:50:17.926Z,13.17
2018-11-04T17:52:47.183Z,13.70
2018-11-04T17:55:16.511Z,12.60
2018-11-04T17:57:45.879Z,14.47
2018-11-04T18:00:16.108Z,14.60
2018-11-04T18:02:45.384Z,13.60
2018-11-04T18:05:15.332Z,14.20
2018-11-04T18:07:44.809Z,13.60
2018-11-04T18:10:14.786Z,13.07
2018-11-04T18:12:44.033Z,13.73
2018-11-04T18:15:14.220Z,13.83
2018-11-04T18:17:43.359Z,12.87
2018-11-04T18:20:13.018Z,13.20
2018-11-04T18:22:42.147Z,15.10
2018-11-04T18:25:12.155Z,15.07
2018-11-04T18:27:41.280Z,16.07
2018-11-04T18:30:12.663Z,14.83
2018-11-04T18:32:41.937Z,14.53
2018-11-04T18:35:11.273Z,15.30
2018-11-04T18:37:40.453Z,15.10
2018-11-04T18:40:11.660Z,14.13
2018-11-04T18:42:40.840Z,15.60
2018-11-04T18:45:11.358Z,15.93
2018-11-04T18:47:40.530Z,17.07
2018-11-04T18:50:11.002Z,15.57
2018-11-04T18:52:40.310Z,17.07
2018-11-04T18:55:10.650Z,15.10
2018-11-04T18:57:40.128Z,16.37
2018-11-04T19:00:11.869Z,14.20
2018-11-04T19:02:41.682Z,17.30
2018-11-04T19:05:11.193Z,16.80
2018-11-04T19:07:40.468Z,18.00
2018-11-04T19:10:12.386Z,18.17
2018-11-04T19:12:41.813Z,17.57
2018-11-04T19:15:11.076Z,17.73
2018-11-04T19:17:40.321Z,17.97
2018-11-04T19:20:11.241Z,17.87
2018-11-04T19:22:40.465Z,17.50
2018-11-04T19:25:10.622Z,16.60
2018-11-04T19:27:40.111Z,17.87
2018-11-04T19:30:11.580Z,17.60
2018-11-04T19:32:41.177Z,16.97
2018-11-04T19:35:11.335Z,17.10
2018-11-04T19:37:40.757Z,16.53
2018-11-04T19:40:11.578Z,16.97
2018-11-04T19:42:40.862Z,15.33
2018-11-04T19:45:09.996Z,16.90
2018-11-04T19:47:39.457Z,15.60
2018-11-04T19:50:10.590Z,16.40
2018-11-04T19:52:39.840Z,17.47
2018-11-04T19:55:09.772Z,17.80
2018-11-04T19:57:38.957Z,17.40
2018-11-04T20:00:09.843Z,19.10
2018-11-04T20:02:39.005Z,16.80
2018-11-04T20:05:09.472Z,16.23
2018-11-04T20:07:39.439Z,17.47
2018-11-04T20:10:11.076Z,16.60
2018-11-04T20:12:45.907Z,17.10
2018-11-04T20:15:15.968Z,16.30
2018-11-04T20:17:45.801Z,17.57
2018-11-04T20:20:20.567Z,16.80
2018-11-04T20:22:49.676Z,38.00
2018-11-04T20:25:24.036Z,34.23
2018-11-04T20:27:53.261Z,17.83
2018-11-04T20:30:22.510Z,18.20
2018-11-04T20:32:57.034Z,17.30
2018-11-04T20:35:26.137Z,16.87
2018-11-04T20:37:55.481Z,15.67
2018-11-04T20:40:29.830Z,16.57
2018-11-04T20:42:59.689Z,15.33
2018-11-04T20:45:28.842Z,14.90
2018-11-04T20:48:03.311Z,15.47
2018-11-04T20:50:37.736Z,15.50
2018-11-04T20:53:07.682Z,15.27
2018-11-04T20:55:42.074Z,15.13
2018-11-04T20:58:11.324Z,14.93
2018-11-04T21:00:41.149Z,15.63
2018-11-04T21:03:11.072Z,15.50
2018-11-04T21:05:40.240Z,15.70
2018-11-04T21:08:09.542Z,15.90
2018-11-04T21:10:38.755Z,13.53
2018-11-04T21:13:08.006Z,15.20
2018-11-04T21:15:37.105Z,14.10
2018-11-04T21:18:07.270Z,14.33
2018-11-04T21:20:36.420Z,13.40
2018-11-04T21:23:06.692Z,14.63
2018-11-04T21:28:05.993Z,14.00
2018-11-04T21:30:35.170Z,13.73
2018-11-04T21:33:04.998Z,13.40
2018-11-04T21:35:34.719Z,12.97
2018-11-04T21:38:03.843Z,12.60
2018-11-04T21:40:32.986Z,13.10
2018-11-04T21:43:02.276Z,13.97
2018-11-04T21:45:31.263Z,13.20
2018-11-04T21:48:00.554Z,12.40
2018-11-04T21:50:29.669Z,13.13
2018-11-04T21:52:58.898Z,12.90
2018-11-04T21:55:28.283Z,14.20
2018-11-04T21:57:57.278Z,12.93
2018-11-04T22:00:26.532Z,13.10
2018-11-04T22:02:56.044Z,14.07
2018-11-04T22:05:26.390Z,11.53
2018-11-04T22:07:55.569Z,12.70
2018-11-04T22:10:24.795Z,12.60
2018-11-04T22:12:54.025Z,12.33
2018-11-04T22:15:23.164Z,12.27
2018-11-04T22:17:52.394Z,12.17
2018-11-04T22:20:21.626Z,11.00
2018-11-04T22:22:50.781Z,13.17
2018-11-04T22:25:19.932Z,11.27
2018-11-04T22:27:49.827Z,13.93
2018-11-04T22:30:18.931Z,13.33
2018-11-04T22:32:48.085Z,12.37
2018-11-04T22:35:17.653Z,12.40
2018-11-04T22:37:46.860Z,12.73
2018-11-04T22:40:16.619Z,13.50
2018-11-04T22:42:45.848Z,13.30
2018-11-04T22:45:15.088Z,12.83
2018-11-04T22:47:44.810Z,12.00
2018-11-04T22:50:15.009Z,12.80
2018-11-04T22:52:44.420Z,13.20
2018-11-04T22:55:14.434Z,12.00
2018-11-04T22:57:44.048Z,12.53
2018-11-04T23:00:44.933Z,12.50
2018-11-04T23:03:14.070Z,12.80
2018-11-04T23:05:43.213Z,13.00
2018-11-04T23:08:13.680Z,14.00
2018-11-04T23:10:42.969Z,12.60
2018-11-04T23:13:12.105Z,13.00
2018-11-04T23:15:41.241Z,11.20
2018-11-04T23:18:10.396Z,13.80
2018-11-04T23:20:39.528Z,11.30
2018-11-04T23:23:08.717Z,13.40
2018-11-04T23:25:38.504Z,11.93
2018-11-04T23:28:07.650Z,13.37
2018-11-04T23:30:36.796Z,12.50
2018-11-04T23:33:06.019Z,13.97
2018-11-04T23:35:35.188Z,12.37
2018-11-04T23:38:04.374Z,11.83
2018-11-04T23:40:33.653Z,12.70
2018-11-04T23:43:02.878Z,16.37
2018-11-04T23:45:32.002Z,11.73
2018-11-04T23:48:01.174Z,15.27
2018-11-04T23:50:30.324Z,12.00
2018-11-04T23:52:59.576Z,13.30
2018-11-04T23:55:29.492Z,11.57
2018-11-04T23:57:58.722Z,12.57
